GABS/BKO METAR and TAF weather

Enter ICAO airport designator
Station Type Date Time Source
GABS METAR 2020/11/27 02:30 UTC NOAA

GABS 270230Z 36002KT CAVOK 15/08 Q1013 NOSIG


Station Type Date Time Source
GABS Decoded METAR 2020/11/27 02:30 UTC NOAA

Bamako / Senou, Mali (GABS) 12-32N 007-57W 381M
Nov 26, 2020 - 09:30 PM EST / 2020.11.27 0230 UTC
Wind: from the N (360 degrees) at 2 MPH (2 KT):0
Visibility: greater than 7 mile(s):0
Temperature: 59 F (15 C)
Dew Point: 46 F (8 C)
Relative Humidity: 62%
Pressure (altimeter): 29.91 in. Hg (1013 hPa)
ob: GABS 270230Z 36002KT CAVOK 15/08 Q1013 NOSIG
cycle: 2

Station Type Date Time Source
GABS TAF 2020/11/26 18:03 UTC NOAA

TAF TAF GABS 261700Z 2618/2724 02010KT 8000 NSC PROB40
TEMPO 2706/2710 4000 HZ

Example: see airport list